createdAt,value
2017-09-03T00:00:45.695Z,89.10
2017-09-03T00:03:14.011Z,88.13
2017-09-03T00:05:42.326Z,87.74
2017-09-03T00:08:10.678Z,87.99
2017-09-03T00:10:38.999Z,88.49
2017-09-03T00:13:07.330Z,88.18
2017-09-03T00:15:35.675Z,87.30
2017-09-03T00:18:03.993Z,86.55
2017-09-03T00:20:32.315Z,85.58
2017-09-03T00:23:00.667Z,86.85
2017-09-03T00:25:28.995Z,86.62
2017-09-03T00:27:57.330Z,87.11
2017-09-03T00:30:25.673Z,86.84
2017-09-03T00:32:53.994Z,87.16
2017-09-03T00:35:22.318Z,87.56
2017-09-03T00:37:50.678Z,88.48
2017-09-03T00:40:19.008Z,87.77
2017-09-03T00:42:47.323Z,88.11
2017-09-03T00:45:15.684Z,88.90
2017-09-03T00:47:43.999Z,88.09
2017-09-03T00:50:12.338Z,87.44
2017-09-03T00:52:40.695Z,87.78
2017-09-03T00:55:09.018Z,87.49
2017-09-03T00:57:37.334Z,88.37
2017-09-03T01:00:05.688Z,88.03
2017-09-03T01:02:34.020Z,88.68
2017-09-03T01:05:02.337Z,88.36
2017-09-03T01:07:30.709Z,88.46
2017-09-03T01:09:59.080Z,89.22
2017-09-03T01:12:28.294Z,89.87
2017-09-03T01:14:56.647Z,90.94
2017-09-03T01:17:24.962Z,90.68
2017-09-03T01:19:53.281Z,89.72
2017-09-03T01:22:21.631Z,89.44
2017-09-03T01:24:49.950Z,88.70
2017-09-03T01:27:18.270Z,87.94
2017-09-03T01:29:46.655Z,87.48
2017-09-03T01:32:14.994Z,87.20
2017-09-03T01:34:43.316Z,86.92
2017-09-03T01:37:11.674Z,87.97
2017-09-03T01:39:40.003Z,88.50
2017-09-03T01:42:08.329Z,88.91
2017-09-03T01:44:36.667Z,89.02
2017-09-03T01:47:04.986Z,87.87
2017-09-03T01:49:33.318Z,87.53
2017-09-03T01:52:01.674Z,87.44
2017-09-03T01:54:30.002Z,88.15
2017-09-03T01:56:58.323Z,87.96
2017-09-03T01:59:26.683Z,88.20
2017-09-03T02:01:54.999Z,88.19
2017-09-03T02:04:23.340Z,87.51
2017-09-03T02:06:51.679Z,86.52
2017-09-03T02:09:20.007Z,87.27
2017-09-03T02:11:48.350Z,87.93
2017-09-03T02:14:16.669Z,88.43
2017-09-03T02:16:45.009Z,87.78
2017-09-03T02:19:13.335Z,87.67
2017-09-03T02:21:41.691Z,87.34
2017-09-03T02:24:10.022Z,87.30
2017-09-03T02:26:38.339Z,87.55
2017-09-03T02:29:06.690Z,87.41
2017-09-03T02:31:35.016Z,87.96
2017-09-03T02:34:03.343Z,88.13
2017-09-03T02:36:31.679Z,87.50
2017-09-03T02:38:59.994Z,88.45
2017-09-03T02:41:28.366Z,90.85
2017-09-03T02:43:56.712Z,91.50
2017-09-03T02:46:25.035Z,91.06
2017-09-03T02:48:53.362Z,90.69
2017-09-03T02:51:21.705Z,90.08
2017-09-03T02:53:50.043Z,89.70
2017-09-03T02:56:18.352Z,89.94
2017-09-03T02:58:46.695Z,89.91
2017-09-03T03:01:15.035Z,90.37
2017-09-03T03:03:43.358Z,90.78
2017-09-03T03:06:11.679Z,89.71
2017-09-03T03:08:40.025Z,89.77
2017-09-03T03:11:08.343Z,88.96
2017-09-03T03:13:36.665Z,88.60
2017-09-03T03:16:05.002Z,88.61
2017-09-03T03:18:33.331Z,89.12
2017-09-03T03:21:01.675Z,91.26
2017-09-03T03:23:30.002Z,91.95
2017-09-03T03:25:58.340Z,91.00
2017-09-03T03:28:26.661Z,90.37
2017-09-03T03:30:55.016Z,90.19
2017-09-03T03:33:23.338Z,89.93
2017-09-03T03:35:51.659Z,89.18
2017-09-03T03:38:20.001Z,90.34
2017-09-03T03:40:48.313Z,91.84
2017-09-03T03:43:16.643Z,91.51
2017-09-03T03:45:44.986Z,90.65
2017-09-03T03:48:13.298Z,89.79
2017-09-03T03:50:41.653Z,89.84
2017-09-03T03:53:09.987Z,89.59
2017-09-03T03:55:38.300Z,89.28
2017-09-03T03:58:06.686Z,88.67
2017-09-03T04:00:34.998Z,88.69
2017-09-03T04:03:03.337Z,88.15
2017-09-03T04:05:31.647Z,87.90
2017-09-03T04:07:59.966Z,87.78
2017-09-03T04:10:28.315Z,86.84
2017-09-03T04:12:56.644Z,86.55
2017-09-03T04:15:24.958Z,86.47
2017-09-03T04:17:53.298Z,86.45
2017-09-03T04:20:21.612Z,85.87
2017-09-03T04:22:49.925Z,86.45
2017-09-03T04:25:18.267Z,86.57
2017-09-03T04:27:46.578Z,86.81
2017-09-03T04:30:14.904Z,86.78
2017-09-03T04:32:43.256Z,87.11
2017-09-03T04:35:11.588Z,87.12
2017-09-03T04:37:39.897Z,87.22
2017-09-03T04:40:08.236Z,86.99
2017-09-03T04:42:36.550Z,87.23
2017-09-03T04:45:04.875Z,87.99
2017-09-03T04:47:33.213Z,88.77
2017-09-03T04:50:01.522Z,88.39
2017-09-03T04:52:29.866Z,87.40
2017-09-03T04:54:58.191Z,87.76
2017-09-03T04:57:26.527Z,89.32
2017-09-03T04:59:54.867Z,89.37
2017-09-03T05:02:23.179Z,88.32
2017-09-03T05:04:52.303Z,87.77
2017-09-03T05:07:20.629Z,87.05
2017-09-03T05:09:48.979Z,87.94
2017-09-03T05:12:17.298Z,87.24
2017-09-03T05:14:45.621Z,87.25
2017-09-03T05:17:13.958Z,87.40
2017-09-03T05:19:42.268Z,87.02
2017-09-03T05:22:10.609Z,86.74
2017-09-03T05:24:38.922Z,86.46
2017-09-03T05:27:07.254Z,85.87
2017-09-03T05:29:35.604Z,85.19
2017-09-03T05:32:03.924Z,84.34
2017-09-03T05:34:32.239Z,84.24
2017-09-03T05:37:00.587Z,84.93
2017-09-03T05:39:28.921Z,83.91
2017-09-03T05:41:57.235Z,82.90
2017-09-03T05:44:25.575Z,83.37
2017-09-03T05:46:53.886Z,84.35
2017-09-03T05:49:22.243Z,84.55
2017-09-03T05:51:50.575Z,84.34
2017-09-03T05:54:18.923Z,84.00
2017-09-03T05:56:47.245Z,84.21
2017-09-03T05:59:15.563Z,86.16
2017-09-03T06:01:43.894Z,85.57
2017-09-03T06:04:12.204Z,85.67
2017-09-03T06:06:40.542Z,85.87
2017-09-03T06:09:08.862Z,85.30
2017-09-03T06:11:37.178Z,84.98
2017-09-03T06:14:05.520Z,84.18
2017-09-03T06:16:33.854Z,84.38
2017-09-03T06:19:02.176Z,84.20
2017-09-03T06:21:30.530Z,83.88
2017-09-03T06:23:58.846Z,83.61
2017-09-03T06:26:27.190Z,83.70
2017-09-03T06:28:55.514Z,84.71
2017-09-03T06:31:23.854Z,83.72
2017-09-03T06:33:52.174Z,84.46
2017-09-03T06:36:20.501Z,84.22
2017-09-03T06:38:48.850Z,83.37
2017-09-03T06:41:17.183Z,82.79
2017-09-03T06:43:45.547Z,83.09
2017-09-03T06:46:13.871Z,82.99
2017-09-03T06:48:42.198Z,81.41
2017-09-03T06:51:10.546Z,81.80
2017-09-03T06:53:38.866Z,80.94
2017-09-03T06:56:07.186Z,81.26
2017-09-03T06:58:35.547Z,82.43
2017-09-03T07:01:03.876Z,82.13
2017-09-03T07:03:32.236Z,80.70
2017-09-03T07:06:00.570Z,80.35
2017-09-03T07:08:28.903Z,81.36
2017-09-03T07:10:57.253Z,82.13
2017-09-03T07:13:25.635Z,82.15
2017-09-03T07:15:53.974Z,81.92
2017-09-03T07:18:22.294Z,81.54
2017-09-03T07:20:50.646Z,81.31
2017-09-03T07:23:18.964Z,82.10
2017-09-03T07:25:47.281Z,81.29
2017-09-03T07:28:15.648Z,81.06
2017-09-03T07:30:43.957Z,80.05
2017-09-03T07:33:12.275Z,81.14
2017-09-03T07:35:40.629Z,80.96
2017-09-03T07:38:08.965Z,81.01
2017-09-03T07:40:37.282Z,80.29
2017-09-03T07:43:05.625Z,80.11
2017-09-03T07:45:33.946Z,80.12
2017-09-03T07:48:02.295Z,80.14
2017-09-03T07:50:30.616Z,80.81
2017-09-03T07:52:58.942Z,80.49
2017-09-03T07:55:27.290Z,80.70
2017-09-03T07:57:55.603Z,80.24
2017-09-03T08:00:23.952Z,80.31
2017-09-03T08:02:52.283Z,80.56
2017-09-03T08:05:20.635Z,81.26
2017-09-03T08:07:48.958Z,81.31
2017-09-03T08:10:17.299Z,81.41
2017-09-03T08:12:45.615Z,80.56
2017-09-03T08:15:13.951Z,79.79
2017-09-03T08:17:42.276Z,78.83
2017-09-03T08:20:10.631Z,78.57
2017-09-03T08:22:38.955Z,78.72
2017-09-03T08:25:07.279Z,78.95
2017-09-03T08:27:35.634Z,78.59
2017-09-03T08:30:03.967Z,77.79
2017-09-03T08:32:32.289Z,77.73
2017-09-03T08:35:00.631Z,76.34
2017-09-03T08:37:28.948Z,75.96
2017-09-03T08:39:57.295Z,76.15
2017-09-03T08:42:25.643Z,75.00
2017-09-03T08:44:54.026Z,73.88
2017-09-03T08:47:22.349Z,72.12
2017-09-03T08:49:50.671Z,71.70
2017-09-03T08:52:19.031Z,72.44
2017-09-03T08:54:47.350Z,70.30
2017-09-03T08:57:15.675Z,69.85
2017-09-03T08:59:44.033Z,67.57
2017-09-03T09:02:12.362Z,65.47
2017-09-03T09:04:40.694Z,66.59
2017-09-03T09:07:09.035Z,67.00
2017-09-03T09:09:37.366Z,65.85
2017-09-03T09:12:05.710Z,64.46
2017-09-03T09:14:34.039Z,66.73
2017-09-03T09:17:02.378Z,66.11
2017-09-03T09:19:30.728Z,65.95
2017-09-03T09:21:59.074Z,63.77
2017-09-03T09:24:27.390Z,66.04
2017-09-03T09:26:55.747Z,62.93
2017-09-03T09:29:24.071Z,61.27
2017-09-03T09:31:52.408Z,62.21
2017-09-03T09:34:20.754Z,60.96
2017-09-03T09:36:49.076Z,60.12
2017-09-03T09:39:17.418Z,58.83
2017-09-03T09:41:45.730Z,58.26
2017-09-03T09:44:14.082Z,57.48
2017-09-03T09:46:42.398Z,57.46
2017-09-03T09:49:10.754Z,56.67
2017-09-03T09:51:39.070Z,57.90
2017-09-03T09:54:07.423Z,57.31
2017-09-03T09:56:35.745Z,55.76
2017-09-03T09:59:04.068Z,55.35
2017-09-03T10:01:32.421Z,51.76
2017-09-03T10:04:00.739Z,53.25
2017-09-03T10:06:29.083Z,53.09
2017-09-03T10:08:57.406Z,52.97
2017-09-03T10:11:25.740Z,52.59
2017-09-03T10:13:54.089Z,53.33
2017-09-03T10:16:22.402Z,53.18
2017-09-03T10:18:50.747Z,54.16
2017-09-03T10:21:19.062Z,57.62
2017-09-03T10:23:47.383Z,56.10
2017-09-03T10:26:15.762Z,55.33
2017-09-03T10:28:44.086Z,54.66
2017-09-03T10:31:12.436Z,56.18
2017-09-03T10:33:40.770Z,55.88
2017-09-03T10:36:09.116Z,54.52
2017-09-03T10:38:37.434Z,52.46
2017-09-03T10:41:05.747Z,53.20
2017-09-03T10:43:34.087Z,53.64
2017-09-03T10:46:02.404Z,51.58
2017-09-03T10:48:30.746Z,51.41
2017-09-03T10:50:59.074Z,51.82
2017-09-03T10:53:27.418Z,52.37
2017-09-03T10:55:55.742Z,52.81
2017-09-03T10:58:24.060Z,53.01
2017-09-03T11:00:52.482Z,51.16
2017-09-03T11:03:20.826Z,51.90
2017-09-03T11:05:49.142Z,53.91
2017-09-03T11:08:17.483Z,51.10
2017-09-03T11:10:45.823Z,51.98
2017-09-03T11:13:14.144Z,50.96
2017-09-03T11:15:42.469Z,53.11
2017-09-03T11:18:10.811Z,51.51
2017-09-03T11:20:39.131Z,52.68
2017-09-03T11:23:07.493Z,53.13
2017-09-03T11:25:35.810Z,52.23
2017-09-03T11:28:04.159Z,50.47
2017-09-03T11:30:32.483Z,50.79
2017-09-03T11:33:00.807Z,50.15
2017-09-03T11:35:29.199Z,49.54
2017-09-03T11:37:57.523Z,50.01
2017-09-03T11:40:25.877Z,54.66
2017-09-03T11:42:54.202Z,51.54
2017-09-03T11:45:22.547Z,53.32
2017-09-03T11:47:50.878Z,48.87
2017-09-03T11:50:19.195Z,52.28
2017-09-03T11:52:47.545Z,53.08
2017-09-03T11:55:15.872Z,51.19
2017-09-03T11:57:44.206Z,51.11
2017-09-03T12:00:12.551Z,53.51
2017-09-03T12:02:40.885Z,53.79
2017-09-03T12:05:09.216Z,51.96
2017-09-03T12:07:37.562Z,54.18
2017-09-03T12:10:05.886Z,53.71
2017-09-03T12:12:34.216Z,53.84
2017-09-03T12:15:02.563Z,55.02
2017-09-03T12:17:30.905Z,54.00
2017-09-03T12:19:59.252Z,56.91
2017-09-03T12:22:27.581Z,55.88
2017-09-03T12:24:55.895Z,53.90
2017-09-03T12:27:24.242Z,54.71
2017-09-03T12:29:52.571Z,54.99
2017-09-03T12:32:20.892Z,56.17
2017-09-03T12:34:49.242Z,55.32
2017-09-03T12:37:17.571Z,55.21
2017-09-03T12:39:45.897Z,55.48
2017-09-03T12:42:14.243Z,56.22
2017-09-03T12:44:42.574Z,56.68
2017-09-03T12:47:10.913Z,55.93
2017-09-03T12:49:39.232Z,57.31
2017-09-03T12:52:07.556Z,59.26
2017-09-03T12:54:35.898Z,59.10
2017-09-03T12:57:04.223Z,60.29
2017-09-03T12:59:32.552Z,57.11
2017-09-03T13:02:00.897Z,62.08
2017-09-03T13:04:29.219Z,60.21
2017-09-03T13:06:57.561Z,62.89
2017-09-03T13:09:25.891Z,65.35
2017-09-03T13:11:54.312Z,68.18
2017-09-03T13:14:22.639Z,68.98
2017-09-03T13:16:50.974Z,70.18
2017-09-03T13:19:19.318Z,69.00
2017-09-03T13:21:47.646Z,70.48
2017-09-03T13:24:16.562Z,71.84
2017-09-03T13:26:44.881Z,68.53
2017-09-03T13:29:13.203Z,67.44
2017-09-03T13:31:41.552Z,66.57
2017-09-03T13:34:09.875Z,71.38
2017-09-03T13:36:38.197Z,72.68
2017-09-03T13:39:06.550Z,68.54
2017-09-03T13:41:34.870Z,65.89
2017-09-03T13:44:03.218Z,68.03
2017-09-03T13:46:31.548Z,66.38
2017-09-03T13:48:59.866Z,65.24
2017-09-03T13:51:28.206Z,67.09
2017-09-03T13:53:56.534Z,66.14
2017-09-03T13:56:24.872Z,66.12
2017-09-03T13:58:53.215Z,65.03
2017-09-03T14:01:21.547Z,64.30
2017-09-03T14:03:49.871Z,67.13
2017-09-03T14:06:18.212Z,62.72
2017-09-03T14:08:46.537Z,63.67
2017-09-03T14:11:14.879Z,63.36
2017-09-03T14:13:43.205Z,64.86
2017-09-03T14:16:11.518Z,62.02
2017-09-03T14:18:39.866Z,60.67
2017-09-03T14:21:08.182Z,58.12
2017-09-03T14:23:36.551Z,59.52
2017-09-03T14:26:04.895Z,57.55
2017-09-03T14:28:33.226Z,58.58
2017-09-03T14:31:01.570Z,56.02
2017-09-03T14:33:29.903Z,55.50
2017-09-03T14:35:58.222Z,52.98
2017-09-03T14:38:26.576Z,48.34
2017-09-03T14:40:54.895Z,47.47
2017-09-03T14:43:23.208Z,47.94
2017-09-03T14:45:51.559Z,47.03
2017-09-03T14:48:19.875Z,46.45
2017-09-03T14:50:48.238Z,46.47
2017-09-03T14:53:16.553Z,50.28
2017-09-03T14:55:44.910Z,54.31
2017-09-03T14:58:13.315Z,50.30
2017-09-03T15:00:41.635Z,50.52
2017-09-03T15:03:09.986Z,47.57
2017-09-03T15:05:38.327Z,45.44
2017-09-03T15:08:06.644Z,42.15
2017-09-03T15:10:34.970Z,39.08
2017-09-03T15:13:03.317Z,36.44
2017-09-03T15:15:31.638Z,35.34
2017-09-03T15:17:59.980Z,36.37
2017-09-03T15:20:28.317Z,35.26
2017-09-03T15:22:56.639Z,38.85
2017-09-03T15:25:24.978Z,37.26
2017-09-03T15:27:53.322Z,34.76
2017-09-03T15:30:21.653Z,36.25
2017-09-03T15:32:49.990Z,36.91
2017-09-03T15:35:18.314Z,36.15
2017-09-03T15:37:46.664Z,36.62
2017-09-03T15:40:14.986Z,35.76
2017-09-03T15:42:43.330Z,36.38
2017-09-03T15:45:11.662Z,37.00
2017-09-03T15:47:39.995Z,36.28
2017-09-03T15:50:08.343Z,40.14
2017-09-03T15:52:36.680Z,41.47
2017-09-03T15:55:05.014Z,42.96
2017-09-03T15:57:33.363Z,41.17
2017-09-03T16:00:01.684Z,43.38
2017-09-03T16:02:30.044Z,44.01
2017-09-03T16:04:58.370Z,44.83
2017-09-03T16:07:26.705Z,43.77
2017-09-03T16:09:55.059Z,41.89
2017-09-03T16:12:23.389Z,41.06
2017-09-03T16:14:51.735Z,39.11
2017-09-03T16:17:20.051Z,41.80
2017-09-03T16:19:48.404Z,41.10
2017-09-03T16:22:16.722Z,38.00
2017-09-03T16:24:45.047Z,37.10
2017-09-03T16:27:13.393Z,40.84
2017-09-03T16:29:41.726Z,44.39
2017-09-03T16:32:10.083Z,46.30
2017-09-03T16:34:38.423Z,47.31
2017-09-03T16:37:06.755Z,48.34
2017-09-03T16:39:35.102Z,49.22
2017-09-03T16:42:03.424Z,50.61
2017-09-03T16:44:31.764Z,52.39
2017-09-03T16:47:00.111Z,54.81
2017-09-03T16:49:28.446Z,55.41
2017-09-03T16:51:56.790Z,58.23
2017-09-03T16:54:25.111Z,56.90
2017-09-03T16:56:53.443Z,55.57
2017-09-03T16:59:21.778Z,56.14
2017-09-03T17:01:50.098Z,57.25
2017-09-03T17:04:18.439Z,56.96
2017-09-03T17:06:46.762Z,54.18
2017-09-03T17:09:15.083Z,50.74
2017-09-03T17:11:43.445Z,47.71
2017-09-03T17:14:11.772Z,44.95
2017-09-03T17:16:40.102Z,44.80
2017-09-03T17:19:08.446Z,42.84
2017-09-03T17:21:36.763Z,42.94
2017-09-03T17:24:05.086Z,44.65
2017-09-03T17:26:33.430Z,48.47
2017-09-03T17:29:01.814Z,53.11
2017-09-03T17:31:31.045Z,55.29
2017-09-03T17:33:59.368Z,56.01
2017-09-03T17:36:29.570Z,57.04
2017-09-03T17:39:00.286Z,60.48
2017-09-03T17:41:28.598Z,61.22
2017-09-03T17:43:57.679Z,62.94
2017-09-03T17:59:47.237Z,68.01
2017-09-03T18:02:15.554Z,67.58
2017-09-03T18:04:43.874Z,67.20
2017-09-03T18:07:12.207Z,67.22
2017-09-03T18:09:40.532Z,68.40
2017-09-03T18:12:08.888Z,71.33
2017-09-03T18:14:37.214Z,72.59
2017-09-03T18:17:05.551Z,72.09
2017-09-03T18:19:33.871Z,72.76
2017-09-03T18:22:02.217Z,72.19
2017-09-03T18:24:30.536Z,71.13
2017-09-03T18:26:58.906Z,71.07
2017-09-03T18:29:28.926Z,71.60
2017-09-03T18:31:57.243Z,72.41
2017-09-03T18:34:25.583Z,72.75
2017-09-03T18:50:24.824Z,74.36
2017-09-03T18:52:55.888Z,74.79
2017-09-03T18:55:24.234Z,75.39
2017-09-03T18:57:55.862Z,75.56
2017-09-03T19:00:24.574Z,76.01
2017-09-03T19:02:52.891Z,76.04
2017-09-03T19:05:21.245Z,76.25
2017-09-03T19:07:49.574Z,75.99
2017-09-03T19:10:17.952Z,76.71
2017-09-03T19:12:46.274Z,76.77
2017-09-03T19:15:14.614Z,76.51
2017-09-03T19:17:42.935Z,76.80
2017-09-03T19:20:11.256Z,76.57
2017-09-03T19:22:39.603Z,76.60
2017-09-03T19:25:07.940Z,76.96
2017-09-03T19:27:36.263Z,79.97
2017-09-03T19:30:04.614Z,79.64
2017-09-03T19:32:32.925Z,80.43
2017-09-03T19:35:01.242Z,79.96
2017-09-03T19:37:29.962Z,79.53
2017-09-03T19:39:58.298Z,78.71
2017-09-03T19:42:26.620Z,78.04
2017-09-03T19:44:54.968Z,77.85
2017-09-03T19:47:23.283Z,77.87
2017-09-03T19:49:51.614Z,78.12
2017-09-03T19:52:19.965Z,78.88
2017-09-03T19:54:48.282Z,79.96
2017-09-03T19:57:16.600Z,79.68
2017-09-03T19:59:44.958Z,79.47
2017-09-03T20:02:13.291Z,79.30
2017-09-03T20:04:41.615Z,79.87
2017-09-03T20:07:09.969Z,80.00
2017-09-03T20:09:38.294Z,79.67
2017-09-03T20:12:06.611Z,79.65
2017-09-03T20:14:34.955Z,79.65
2017-09-03T20:17:03.271Z,79.71
2017-09-03T20:19:31.592Z,80.19
2017-09-03T20:21:59.941Z,80.61
2017-09-03T20:24:28.267Z,81.87
2017-09-03T20:26:56.594Z,82.04
2017-09-03T20:29:24.992Z,82.73
2017-09-03T20:31:53.319Z,82.61
2017-09-03T20:34:21.635Z,82.12
2017-09-03T20:36:49.978Z,81.63
2017-09-03T20:39:18.299Z,81.64
2017-09-03T20:41:46.634Z,81.78
2017-09-03T20:44:14.994Z,81.81
2017-09-03T20:46:43.313Z,81.39
2017-09-03T20:49:11.634Z,81.22
2017-09-03T20:51:39.979Z,81.67
2017-09-03T20:54:08.306Z,81.74
2017-09-03T20:56:36.618Z,81.82
2017-09-03T20:59:04.968Z,82.71
2017-09-03T21:01:33.283Z,82.03
2017-09-03T21:04:01.594Z,81.66
2017-09-03T21:06:29.944Z,81.45
2017-09-03T21:08:58.270Z,81.72
2017-09-03T21:11:26.599Z,82.74
2017-09-03T21:13:54.940Z,83.72
2017-09-03T21:16:23.267Z,83.57
2017-09-03T21:18:51.590Z,82.60
2017-09-03T21:21:19.947Z,81.90
2017-09-03T21:23:48.268Z,82.25
2017-09-03T21:26:16.654Z,83.67
2017-09-03T21:28:44.994Z,82.96
2017-09-03T21:31:13.322Z,82.71
2017-09-03T21:33:41.643Z,83.46
2017-09-03T21:36:09.994Z,83.23
2017-09-03T21:38:38.330Z,83.46
2017-09-03T21:41:06.791Z,83.70
2017-09-03T21:43:35.424Z,83.25
2017-09-03T21:46:03.831Z,83.09
2017-09-03T21:48:32.159Z,83.01
2017-09-03T21:51:00.590Z,82.85
2017-09-03T21:53:29.038Z,83.95
2017-09-03T21:55:57.487Z,84.16
2017-09-03T21:58:25.909Z,84.94
2017-09-03T22:00:54.317Z,84.31
2017-09-03T22:03:22.800Z,84.11
2017-09-03T22:05:51.163Z,84.11
2017-09-03T22:08:19.577Z,85.45
2017-09-03T22:10:47.927Z,86.04
2017-09-03T22:13:16.382Z,86.42
2017-09-03T22:15:44.798Z,86.42
2017-09-03T22:18:13.206Z,87.15
2017-09-03T22:20:41.647Z,87.23
2017-09-03T22:23:10.050Z,87.19
2017-09-03T22:25:38.443Z,86.85
2017-09-03T22:28:06.852Z,85.87
2017-09-03T22:30:35.204Z,84.96
2017-09-03T22:33:03.521Z,84.41
2017-09-03T22:35:31.871Z,83.94
2017-09-03T22:38:00.206Z,84.30
2017-09-03T22:40:28.557Z,84.62
2017-09-03T22:42:56.869Z,84.63
2017-09-03T22:45:25.205Z,83.84
2017-09-03T22:47:53.593Z,84.63
2017-09-03T22:50:21.923Z,84.57
2017-09-03T22:52:50.266Z,85.59
2017-09-03T22:55:18.586Z,84.74
2017-09-03T22:57:46.906Z,84.26
2017-09-03T23:00:15.322Z,84.36
2017-09-03T23:02:43.652Z,84.49
2017-09-03T23:05:11.975Z,84.41
2017-09-03T23:07:40.319Z,83.84
2017-09-03T23:10:08.647Z,83.80
2017-09-03T23:12:36.987Z,83.36
2017-09-03T23:15:05.302Z,83.93
2017-09-03T23:17:33.654Z,83.93
2017-09-03T23:20:01.970Z,84.05
2017-09-03T23:22:36.102Z,85.09
2017-09-03T23:25:04.415Z,86.16
2017-09-03T23:27:32.730Z,85.71
2017-09-03T23:30:01.070Z,86.45
2017-09-03T23:32:29.394Z,85.98
2017-09-03T23:34:57.714Z,85.40
2017-09-03T23:37:26.054Z,86.17
2017-09-03T23:39:54.366Z,85.80
2017-09-03T23:42:22.691Z,85.83
2017-09-03T23:44:51.030Z,86.36
2017-09-03T23:47:19.347Z,86.34
2017-09-03T23:49:47.691Z,86.63
2017-09-03T23:52:15.994Z,87.18
2017-09-03T23:54:44.314Z,86.34
2017-09-03T23:57:12.667Z,86.28
2017-09-03T23:59:40.979Z,85.53
